Time;durP1;ratioP1;P1;durP2;ratioP2;P2;SDS_P1;SDS_P2;PMS_P1;PMS_P2;Temp;Humidity;BMP_temperature;BMP_pressure;BME280_temperature;BME280_humidity;BME280_pressure;Samples;Min_cycle;Max_cycle;Signal;HPM_P1;HPM_P2
2022/06/07 00:01:18;;;;;;;6.78;3.35;;;;;;;16.94;61.02;100499.76;1782640;80;21188;-62
2022/06/07 00:03:46;;;;;;;6.33;3.35;;;;;;;16.92;61.17;100497.23;1782578;80;21541;-62
2022/06/07 00:06:16;;;;;;;6.28;3.22;;;;;;;16.93;61.14;100493.38;1782648;80;21552;-62
2022/06/07 00:08:45;;;;;;;6.72;3.00;;;;;;;16.95;61.12;100501.45;1782487;80;21473;-61
2022/06/07 00:11:14;;;;;;;8.80;3.50;;;;;;;16.94;61.21;100499.76;1782685;80;21143;-63
2022/06/07 00:13:45;;;;;;;8.25;3.50;;;;;;;16.91;61.33;100497.47;1782833;80;21116;-63
2022/06/07 00:16:16;;;;;;;6.17;3.20;;;;;;;16.88;61.44;100492.38;1782733;80;21128;-62
2022/06/07 00:18:45;;;;;;;4.40;3.33;;;;;;;16.84;61.51;100494.77;1782462;80;21144;-63
2022/06/07 00:21:15;;;;;;;5.00;3.67;;;;;;;16.82;61.59;100487.78;1782922;80;21508;-64
2022/06/07 00:23:44;;;;;;;9.95;3.42;;;;;;;16.75;61.84;100487.89;1782431;80;21109;-63
2022/06/07 00:26:14;;;;;;;5.97;3.15;;;;;;;16.71;62.17;100488.90;1782954;80;21152;-61
2022/06/07 00:28:45;;;;;;;6.10;3.30;;;;;;;16.74;62.25;100489.81;1782832;80;21117;-63
2022/06/07 00:31:15;;;;;;;6.47;3.45;;;;;;;16.75;62.43;100485.97;1782735;80;21147;-63
2022/06/07 00:33:44;;;;;;;8.00;4.20;;;;;;;16.74;62.54;100487.05;1782709;80;21120;-61
2022/06/07 00:36:15;;;;;;;11.30;4.12;;;;;;;16.74;62.53;100488.97;1782734;80;21572;-64
2022/06/07 00:38:45;;;;;;;8.23;3.95;;;;;;;16.73;62.52;100488.66;1782439;80;21151;-63
2022/06/07 00:41:15;;;;;;;8.35;3.92;;;;;;;16.69;62.57;100486.91;1774837;80;21125;-62
2022/06/07 00:44:23;;;;;;;5.37;3.92;;;;;;;16.70;62.58;100484.45;1774369;81;21164;-62
2022/06/07 00:47:09;;;;;;;6.05;4.03;;;;;;;16.67;62.52;100487.69;1701698;84;21134;-62
2022/06/07 00:49:52;;;;;;;6.85;3.60;;;;;;;16.63;62.67;100487.81;1632213;88;21584;-62
2022/06/07 00:52:22;;;;;;;6.83;4.03;;;;;;;16.58;62.91;100489.06;1754483;81;21141;-62
2022/06/07 00:54:52;;;;;;;8.68;3.75;;;;;;;16.54;63.09;100491.16;1774038;80;21164;-63
2022/06/07 00:57:23;;;;;;;6.05;3.55;;;;;;;16.52;63.25;100488.63;1773361;80;21141;-62
2022/06/07 00:59:52;;;;;;;6.78;3.75;;;;;;;16.49;63.28;100491.86;1774300;81;21160;-62
2022/06/07 01:02:22;;;;;;;6.00;3.27;;;;;;;16.47;63.31;100494.02;1774656;81;21599;-63
2022/06/07 01:04:52;;;;;;;5.30;3.30;;;;;;;16.43;63.35;100493.64;1774480;80;21117;-62
2022/06/07 01:13:01;;;;;;;6.00;3.30;;;;;;;16.32;63.90;100485.28;1774214;81;21164;-62
2022/06/07 01:15:31;;;;;;;6.35;3.55;;;;;;;16.31;64.22;100490.52;1773909;81;21623;-63
2022/06/07 01:18:02;;;;;;;5.40;3.52;;;;;;;16.30;64.31;100492.44;1774466;80;21124;-64
2022/06/07 01:20:33;;;;;;;5.97;3.77;;;;;;;16.28;64.32;100488.22;1774498;81;21117;-62
2022/06/07 01:23:02;;;;;;;6.42;3.55;;;;;;;16.23;64.44;100494.41;1774772;81;21117;-63
2022/06/07 01:25:32;;;;;;;5.87;3.45;;;;;;;16.21;64.52;100491.03;1774449;81;21562;-61
2022/06/07 01:28:01;;;;;;;6.37;3.50;;;;;;;16.20;64.57;100482.97;1774452;81;21132;-62
2022/06/07 01:30:32;;;;;;;5.08;3.83;;;;;;;16.15;64.64;100483.12;1774492;80;21101;-63
2022/06/07 01:33:01;;;;;;;6.10;3.80;;;;;;;16.10;64.82;100485.75;1774156;80;21128;-62
2022/06/07 01:35:30;;;;;;;5.25;3.42;;;;;;;16.06;65.08;100485.06;1774591;81;21109;-65
2022/06/07 01:38:02;;;;;;;5.22;3.45;;;;;;;16.02;65.28;100484.68;1774454;81;21140;-62
2022/06/07 01:43:18;;;;;;;7.75;3.42;;;;;;;16.07;65.29;100494.50;1774729;80;21163;-61
2022/06/07 01:45:49;;;;;;;5.20;3.47;;;;;;;16.06;65.50;100485.91;1774650;81;21128;-63
2022/06/07 01:48:19;;;;;;;6.65;3.40;;;;;;;16.05;65.61;100492.52;1774215;80;22049;-63
2022/06/07 01:50:49;;;;;;;7.25;3.02;;;;;;;16.07;65.65;100489.52;1774283;81;21105;-62
2022/06/07 01:53:20;;;;;;;5.20;3.55;;;;;;;16.08;65.69;100492.05;1774368;81;21121;-61
2022/06/07 01:55:49;;;;;;;6.28;4.08;;;;;;;16.10;65.61;100491.28;1774610;81;21093;-62
2022/06/07 01:58:18;;;;;;;5.22;3.60;;;;;;;16.08;65.34;100480.98;1774577;81;21124;-61
2022/06/07 02:00:47;;;;;;;7.62;3.60;;;;;;;16.05;65.37;100484.75;1774415;81;21141;-62
2022/06/07 02:03:16;;;;;;;6.28;3.58;;;;;;;15.99;65.50;100489.29;1774431;81;21133;-62
2022/06/07 02:06:00;;;;;;;7.70;3.50;;;;;;;15.93;65.75;100489.37;1774445;80;21178;-62
2022/06/07 02:08:29;;;;;;;6.97;3.10;;;;;;;15.88;65.94;100483.69;1774204;81;21121;-64
2022/06/07 02:11:06;;;;;;;6.05;3.35;;;;;;;15.82;66.09;100479.39;1774362;81;21457;-62
2022/06/07 02:13:36;;;;;;;8.38;3.67;;;;;;;15.78;66.30;100484.23;1774719;81;21260;-63
2022/06/07 02:16:06;;;;;;;8.70;3.62;;;;;;;15.76;66.62;100488.60;1774375;81;21121;-62
2022/06/07 02:18:36;;;;;;;5.80;3.52;;;;;;;15.76;66.79;100483.61;1774389;80;21196;-64
2022/06/07 02:21:08;;;;;;;6.95;3.55;;;;;;;15.77;66.79;100482.53;1773812;80;21512;-62
2022/06/07 02:23:37;;;;;;;5.12;3.52;;;;;;;15.73;66.90;100483.53;1774639;81;21116;-62
2022/06/07 02:26:18;;;;;;;12.13;3.60;;;;;;;15.71;67.08;100488.44;1773999;81;21164;-63
2022/06/07 02:29:02;;;;;;;6.85;3.45;;;;;;;15.69;67.34;100482.84;1774294;80;21596;-61
2022/06/07 02:31:31;;;;;;;5.42;3.37;;;;;;;15.68;67.52;100488.91;1774297;81;21105;-62
2022/06/07 02:34:00;;;;;;;6.75;3.58;;;;;;;15.71;67.58;100489.83;1774474;81;21128;-62
2022/06/07 02:36:33;;;;;;;7.08;3.70;;;;;;;15.73;67.63;100489.59;1774315;81;22054;-62
2022/06/07 02:39:04;;;;;;;8.80;3.92;;;;;;;15.69;67.82;100489.20;1774034;81;21117;-62
2022/06/07 02:41:34;;;;;;;7.35;3.75;;;;;;;15.68;68.03;100489.44;1780250;80;21148;-62
2022/06/07 02:44:05;;;;;;;10.82;4.65;;;;;;;15.70;68.25;100488.67;1782872;80;21121;-62
2022/06/07 02:46:35;;;;;;;6.58;4.05;;;;;;;15.76;68.17;100487.76;1782839;80;21566;-62
2022/06/07 02:49:06;;;;;;;9.45;4.25;;;;;;;15.80;68.01;100487.06;1782662;80;21548;-61
2022/06/07 02:51:35;;;;;;;8.58;4.08;;;;;;;15.83;68.04;100495.44;1782903;80;21132;-63
2022/06/07 02:54:09;;;;;;;6.65;3.85;;;;;;;15.85;68.18;100494.66;1782719;80;21519;-63
2022/06/07 02:56:38;;;;;;;12.18;3.92;;;;;;;15.84;68.28;100491.59;1782784;80;21199;-65
2022/06/07 02:59:08;;;;;;;9.80;4.70;;;;;;;15.85;68.39;100488.60;1782554;80;21144;-61
2022/06/07 03:01:37;;;;;;;11.12;4.50;;;;;;;15.90;68.48;100490.67;1782693;80;21132;-61
2022/06/07 03:04:07;;;;;;;7.65;4.37;;;;;;;15.94;68.50;100491.05;1782924;80;21144;-62
2022/06/07 03:06:36;;;;;;;10.68;4.60;;;;;;;16.00;68.42;100490.13;1782693;80;21230;-63
2022/06/07 03:09:05;;;;;;;8.50;4.33;;;;;;;16.04;68.48;100491.36;1782713;80;21196;-61
2022/06/07 03:11:35;;;;;;;9.13;4.45;;;;;;;16.02;68.55;100486.06;1686978;84;21203;-61
2022/06/07 03:14:06;;;;;;;13.28;4.58;;;;;;;16.04;68.61;100486.67;1687180;85;21195;-62
2022/06/07 03:16:36;;;;;;;6.55;4.00;;;;;;;16.08;68.59;100481.53;1632634;88;21216;-63
2022/06/07 03:19:06;;;;;;;10.35;3.85;;;;;;;16.10;68.56;100484.37;1632487;87;21664;-62
2022/06/07 03:21:39;;;;;;;12.70;4.78;;;;;;;16.14;68.46;100488.36;1632776;87;21273;-62
2022/06/07 03:24:08;;;;;;;11.55;4.30;;;;;;;16.15;68.38;100481.75;1632697;88;21823;-62
2022/06/07 03:26:38;;;;;;;9.63;4.05;;;;;;;16.17;68.36;100486.51;1632989;88;21228;-65
2022/06/07 03:29:15;;;;;;;7.75;4.00;;;;;;;16.21;68.39;100483.28;1656070;83;21133;-62
2022/06/07 03:31:44;;;;;;;6.40;4.28;;;;;;;16.27;68.25;100485.14;1715969;83;21105;-62
2022/06/07 03:34:14;;;;;;;8.73;4.60;;;;;;;16.31;68.13;100488.59;1715772;83;21105;-60
2022/06/07 03:36:44;;;;;;;10.05;4.90;;;;;;;16.35;68.05;100490.35;1715887;83;21570;-61
2022/06/07 03:39:13;;;;;;;12.25;4.58;;;;;;;16.38;68.03;100485.20;1715814;83;21226;-62
2022/06/07 03:41:46;;;;;;;11.73;5.05;;;;;;;16.42;67.90;100483.65;1762104;80;21610;-61
2022/06/07 03:44:16;;;;;;;8.13;4.45;;;;;;;16.48;67.83;100487.41;1784487;80;21823;-62
2022/06/07 03:46:48;;;;;;;11.05;5.35;;;;;;;16.51;67.79;100484.70;1784924;80;21124;-62
2022/06/07 03:49:18;;;;;;;18.07;5.87;;;;;;;16.58;67.73;100489.06;1784805;80;21125;-63
2022/06/07 03:51:48;;;;;;;15.68;7.12;;;;;;;16.67;67.60;100485.45;1784797;80;21121;-63
2022/06/07 03:54:18;;;;;;;10.55;5.87;;;;;;;16.76;67.36;100486.27;1784913;80;21720;-62
2022/06/07 03:56:49;;;;;;;9.70;5.22;;;;;;;16.85;67.10;100481.77;1784644;80;21121;-61
2022/06/07 03:59:19;;;;;;;12.93;5.75;;;;;;;16.89;66.97;100482.98;1784708;80;21124;-62
2022/06/07 04:01:50;;;;;;;9.05;5.47;;;;;;;16.93;66.81;100481.47;1784995;80;21548;-61
2022/06/07 04:04:19;;;;;;;9.58;5.10;;;;;;;17.00;66.63;100480.81;1784823;80;21191;-61
2022/06/07 04:09:39;;;;;;;17.20;6.50;;;;;;;17.10;66.43;100485.23;1784139;80;21140;-61
2022/06/07 04:12:13;;;;;;;14.60;5.85;;;;;;;17.21;66.32;100484.94;1784506;80;21104;-61
2022/06/07 04:14:44;;;;;;;13.38;5.95;;;;;;;17.31;66.25;100487.41;1784737;80;21383;-62
2022/06/07 04:17:13;;;;;;;11.40;5.58;;;;;;;17.42;65.98;100484.34;1784796;80;21121;-62
2022/06/07 04:19:46;;;;;;;15.88;5.12;;;;;;;17.53;66.08;100484.05;1784704;80;21160;-62
2022/06/07 04:22:14;;;;;;;17.00;6.03;;;;;;;17.61;66.03;100481.78;1784972;80;21524;-63
2022/06/07 04:24:45;;;;;;;10.65;5.92;;;;;;;17.68;65.70;100481.69;1784347;80;21156;-63
2022/06/07 04:27:15;;;;;;;10.55;5.45;;;;;;;17.76;65.06;100479.94;1784363;80;21148;-62
2022/06/07 04:29:46;;;;;;;9.63;5.50;;;;;;;17.84;64.48;100474.02;1784336;80;21167;-63
2022/06/07 04:32:16;;;;;;;11.28;5.83;;;;;;;17.95;63.36;100480.63;1784785;80;21351;-63
2022/06/07 04:34:47;;;;;;;15.30;5.30;;;;;;;18.08;62.37;100476.73;1784448;80;21152;-62
2022/06/07 04:37:19;;;;;;;17.85;6.95;;;;;;;18.19;61.60;100477.24;1784827;80;21544;-62
2022/06/07 04:39:47;;;;;;;21.42;6.60;;;;;;;18.30;60.88;100473.63;1784589;80;21152;-63
2022/06/07 04:42:16;;;;;;;10.68;5.10;;;;;;;18.42;60.13;100477.73;1780683;80;21163;-62
2022/06/07 04:44:51;;;;;;;11.40;5.00;;;;;;;18.53;59.25;100480.46;1781282;80;21537;-62
2022/06/07 04:47:22;;;;;;;17.27;5.28;;;;;;;18.64;58.65;100473.20;1781725;80;21152;-63
2022/06/07 04:49:52;;;;;;;15.90;5.15;;;;;;;18.76;58.01;100475.91;1782669;80;21132;-64
2022/06/07 04:52:21;;;;;;;7.42;4.17;;;;;;;18.91;57.16;100474.28;1782932;80;21108;-63
2022/06/07 04:54:53;;;;;;;8.98;3.85;;;;;;;19.09;56.49;100477.37;1782696;80;21155;-62
2022/06/07 04:57:22;;;;;;;6.53;3.87;;;;;;;19.35;55.56;100476.39;1782424;80;21124;-63
2022/06/07 04:59:52;;;;;;;9.53;4.05;;;;;;;19.67;54.24;100473.34;1782873;80;21145;-62
2022/06/07 05:02:23;;;;;;;7.42;3.52;;;;;;;20.02;52.97;100472.98;1782711;80;21182;-64
2022/06/07 05:04:52;;;;;;;7.40;3.40;;;;;;;20.41;51.60;100480.77;1782327;80;21423;-63
2022/06/07 05:07:22;;;;;;;6.80;3.05;;;;;;;20.80;50.17;100482.02;1752832;80;21398;-63
2022/06/07 05:09:56;;;;;;;3.90;2.70;;;;;;;21.19;48.37;100477.95;1781072;80;21168;-63
2022/06/07 05:12:27;;;;;;;8.85;3.20;;;;;;;21.59;46.91;100479.42;1780289;80;21163;-62
2022/06/07 05:14:57;;;;;;;8.63;3.17;;;;;;;21.97;45.83;100486.62;1782542;80;21571;-61
2022/06/07 05:17:28;;;;;;;4.35;2.42;;;;;;;22.37;44.90;100493.56;1782192;80;21576;-64
2022/06/07 05:20:00;;;;;;;5.00;2.65;;;;;;;22.74;43.61;100489.20;1782834;80;21548;-63
2022/06/07 05:22:32;;;;;;;4.83;2.55;;;;;;;23.05;42.19;100491.55;1782387;80;21101;-63
2022/06/07 05:25:03;;;;;;;7.03;2.80;;;;;;;23.35;41.39;100487.91;1782577;80;21120;-62
2022/06/07 05:27:42;;;;;;;6.37;2.85;;;;;;;23.62;40.31;100490.47;1782206;80;21541;-62
2022/06/07 05:30:15;;;;;;;6.65;3.37;;;;;;;23.85;39.87;100490.42;1782442;80;21124;-61
2022/06/07 05:32:52;;;;;;;11.38;3.98;;;;;;;24.14;39.57;100489.25;1760915;80;21603;-63
2022/06/07 05:35:26;;;;;;;7.10;3.12;;;;;;;24.43;39.27;100488.87;1781920;80;21156;-62
2022/06/07 05:38:00;;;;;;;6.28;2.40;;;;;;;24.64;38.31;100489.59;1781804;80;21521;-61
2022/06/07 05:40:32;;;;;;;6.53;2.52;;;;;;;24.79;37.83;100488.70;1782531;80;21183;-63
2022/06/07 05:43:03;;;;;;;6.65;2.95;;;;;;;24.96;37.18;100488.58;1753236;80;21178;-63
2022/06/07 05:45:35;;;;;;;8.40;2.87;;;;;;;25.18;37.20;100496.58;1784892;80;21395;-63
2022/06/07 05:48:08;;;;;;;6.37;2.70;;;;;;;25.45;36.44;100490.48;1784417;80;21120;-62
2022/06/07 05:50:39;;;;;;;7.28;3.02;;;;;;;25.60;35.81;100489.50;1783883;80;21614;-63
2022/06/07 05:53:09;;;;;;;5.75;2.92;;;;;;;25.71;35.68;100484.66;1784865;80;21528;-62
2022/06/07 05:55:41;;;;;;;8.33;2.90;;;;;;;25.87;35.88;100480.55;1785016;80;21132;-61
2022/06/07 05:58:12;;;;;;;10.23;3.42;;;;;;;26.07;35.32;100481.76;1718074;83;21113;-62
2022/06/07 06:00:42;;;;;;;12.82;3.20;;;;;;;26.26;34.98;100478.16;1718143;83;21561;-61
2022/06/07 06:03:11;;;;;;;6.60;2.50;;;;;;;26.40;34.85;100486.99;1717890;83;21198;-62
2022/06/07 06:05:46;;;;;;;8.73;2.90;;;;;;;26.58;34.27;100488.16;1717957;83;21192;-62
2022/06/07 06:11:17;;;;;;;10.30;2.45;;;;;;;26.84;34.18;100481.06;1718361;83;21189;-62
2022/06/07 06:13:47;;;;;;;8.20;2.60;;;;;;;27.04;33.48;100484.16;1717945;83;21118;-63
2022/06/07 06:16:21;;;;;;;10.15;2.55;;;;;;;27.25;33.33;100485.23;1749493;80;21164;-63
2022/06/07 06:18:56;;;;;;;4.87;1.80;;;;;;;27.42;32.55;100484.13;1784770;80;21571;-61
2022/06/07 06:21:30;;;;;;;7.42;2.10;;;;;;;27.64;31.77;100481.50;1784120;80;21160;-63
2022/06/07 06:23:59;;;;;;;2.95;1.80;;;;;;;27.82;31.27;100479.76;1784804;80;21096;-62
2022/06/07 06:26:29;;;;;;;5.22;2.17;;;;;;;27.93;30.98;100474.77;1784766;80;21093;-61
2022/06/07 06:29:00;;;;;;;4.22;1.52;;;;;;;27.96;30.94;100477.82;1784900;80;21591;-62
2022/06/07 06:31:31;;;;;;;4.33;1.92;;;;;;;28.01;29.59;100474.91;1785077;80;21140;-63
2022/06/07 06:34:00;;;;;;;3.22;1.70;;;;;;;27.93;29.90;100477.58;1785229;80;21116;-63
2022/06/07 06:36:30;;;;;;;4.15;1.67;;;;;;;27.97;29.49;100473.02;1784809;80;21203;-62
2022/06/07 06:39:00;;;;;;;11.85;2.30;;;;;;;27.98;29.78;100473.28;1784469;80;21144;-63
2022/06/07 06:41:33;;;;;;;3.17;1.65;;;;;;;28.16;29.66;100459.67;1784403;80;21120;-63
2022/06/07 06:44:04;;;;;;;7.97;2.80;;;;;;;28.29;28.74;100464.49;1782864;80;21195;-62
2022/06/07 06:46:39;;;;;;;22.95;5.83;;;;;;;28.37;28.67;100467.14;1781469;80;21183;-62
2022/06/07 06:49:11;;;;;;;15.43;5.05;;;;;;;28.42;28.85;100464.22;1782679;80;21112;-64
2022/06/07 06:51:41;;;;;;;12.23;3.67;;;;;;;28.48;28.45;100460.13;1782992;80;21196;-63
2022/06/07 06:54:12;;;;;;;7.95;2.10;;;;;;;28.59;26.72;100453.12;1782827;80;21611;-62
2022/06/07 06:56:47;;;;;;;6.40;1.97;;;;;;;28.70;26.77;100457.98;1782118;80;21195;-61
2022/06/07 06:59:18;;;;;;;8.75;1.72;;;;;;;28.78;27.06;100443.12;1782058;80;21160;-63
2022/06/07 07:01:51;;;;;;;50.33;4.58;;;;;;;28.91;27.07;100450.73;1782386;80;21124;-65
2022/06/07 07:04:21;;;;;;;6.33;2.08;;;;;;;29.17;26.66;100452.92;1782491;80;21143;-63
2022/06/07 07:06:51;;;;;;;4.50;1.52;;;;;;;29.32;26.52;100451.98;1782719;80;21116;-61
2022/06/07 07:09:24;;;;;;;17.60;2.67;;;;;;;29.41;26.26;100450.63;1782539;80;21181;-63
2022/06/07 07:11:58;;;;;;;3.10;1.42;;;;;;;29.46;26.39;100448.28;1782593;80;21715;-62
2022/06/07 07:14:37;;;;;;;8.78;2.20;;;;;;;29.52;25.87;100445.58;1782290;80;21219;-63
2022/06/07 07:17:06;;;;;;;6.12;2.10;;;;;;;29.51;26.03;100453.80;1782738;80;21228;-64
2022/06/07 07:19:37;;;;;;;6.37;2.12;;;;;;;29.61;25.79;100446.46;1679145;85;21136;-62
2022/06/07 07:22:09;;;;;;;10.38;2.08;;;;;;;29.73;25.61;100443.86;1679353;85;21209;-62
2022/06/07 07:24:39;;;;;;;6.15;2.27;;;;;;;29.82;25.75;100441.08;1679593;85;21175;-63
2022/06/07 07:27:08;;;;;;;5.17;2.08;;;;;;;30.00;26.03;100449.91;1679418;85;21609;-64
2022/06/07 07:29:39;;;;;;;3.35;1.50;;;;;;;30.19;26.17;100449.09;1623925;88;21749;-63
2022/06/07 07:32:09;;;;;;;3.95;1.32;;;;;;;30.37;25.49;100450.55;1568325;91;21193;-63
2022/06/07 07:34:40;;;;;;;3.90;1.70;;;;;;;30.50;24.91;100450.41;1623276;88;21273;-64
2022/06/07 07:37:10;;;;;;;1.65;1.40;;;;;;;30.59;24.82;100454.73;1587800;87;21196;-63
2022/06/07 07:39:40;;;;;;;14.10;2.90;;;;;;;30.66;24.81;100450.00;1679856;85;21216;-64
2022/06/07 07:42:11;;;;;;;2.83;1.80;;;;;;;30.79;24.37;100449.84;1715151;83;21109;-64
2022/06/07 07:44:43;;;;;;;4.17;1.65;;;;;;;30.76;24.70;100446.84;1721865;83;21601;-63
2022/06/07 07:47:12;;;;;;;2.50;1.52;;;;;;;30.71;24.54;100444.19;1738309;80;21120;-62
2022/06/07 07:49:42;;;;;;;3.33;1.70;;;;;;;30.65;24.28;100446.34;1787748;79;21116;-64
2022/06/07 07:52:12;;;;;;;2.40;1.77;;;;;;;30.43;24.67;100441.59;1754244;80;21110;-63
2022/06/07 07:54:42;;;;;;;3.85;1.95;;;;;;;30.43;24.96;100443.00;1788109;79;21110;-63
2022/06/07 07:57:11;;;;;;;3.77;1.70;;;;;;;30.66;24.89;100444.34;1787995;80;21135;-64
2022/06/07 07:59:42;;;;;;;5.42;1.52;;;;;;;30.84;24.37;100444.02;1787917;80;21126;-65
2022/06/07 08:02:20;;;;;;;3.10;1.70;;;;;;;31.09;23.95;100439.52;1787700;80;21118;-66
2022/06/07 08:04:55;;;;;;;8.93;2.83;;;;;;;31.08;23.87;100443.52;1789539;79;21166;-66
2022/06/07 08:07:28;;;;;;;7.58;2.35;;;;;;;30.90;24.17;100441.27;1795185;79;21158;-66
2022/06/07 08:09:57;;;;;;;5.00;1.62;;;;;;;30.94;23.86;100452.77;1787483;79;21561;-66
2022/06/07 08:12:27;;;;;;;1.80;1.40;;;;;;;30.92;24.27;100446.60;1806924;79;21126;-64
2022/06/07 08:14:58;;;;;;;4.70;1.95;;;;;;;30.99;24.00;100437.61;1750429;82;21180;-65
2022/06/07 08:17:30;;;;;;;3.05;1.80;;;;;;;31.06;23.83;100439.35;1750798;82;21118;-65
2022/06/07 08:20:00;;;;;;;3.15;1.60;;;;;;;31.14;23.99;100439.93;1743748;82;21600;-63
2022/06/07 08:22:29;;;;;;;6.95;2.50;;;;;;;31.27;23.41;100446.64;1745170;81;21241;-66
2022/06/07 08:24:58;;;;;;;2.70;1.65;;;;;;;31.19;23.89;100434.95;1741410;81;21136;-66
2022/06/07 08:27:28;;;;;;;7.50;1.82;;;;;;;31.21;23.64;100429.82;1755043;80;21163;-66
2022/06/07 08:29:58;;;;;;;4.03;1.62;;;;;;;31.30;23.17;100431.81;1735567;81;21130;-66
2022/06/07 08:32:27;;;;;;;2.37;1.45;;;;;;;31.26;23.25;100436.48;1764008;80;21645;-65
2022/06/07 08:37:45;;;;;;;3.77;1.70;;;;;;;31.13;23.51;100427.77;1736411;82;21019;-67
2022/06/07 08:40:29;;;;;;;4.60;1.80;;;;;;;31.20;23.10;100427.30;1750908;81;21477;-64
2022/06/07 08:43:00;;;;;;;4.05;1.80;;;;;;;31.09;23.73;100433.85;1720594;82;21535;-65
2022/06/07 08:45:37;;;;;;;3.30;1.90;;;;;;;30.94;23.83;100430.70;1724669;83;21103;-68
2022/06/07 08:48:26;;;;;;;6.60;2.20;;;;;;;30.69;23.83;100432.37;1710557;83;21031;-69
2022/06/07 08:51:23;;;;;;;4.53;1.70;;;;;;;30.35;23.96;100425.44;1706093;83;21022;-66
2022/06/07 08:53:56;;;;;;;6.40;3.25;;;;;;;30.18;24.38;100422.57;1731695;82;20990;-66
2022/06/07 08:56:33;;;;;;;3.42;2.00;;;;;;;30.26;24.27;100430.23;1740183;81;21188;-66
2022/06/07 08:59:15;;;;;;;3.08;1.70;;;;;;;30.33;24.13;100429.17;1781538;79;21043;-69
2022/06/07 09:02:00;;;;;;;5.20;1.90;;;;;;;30.30;24.24;100419.94;1774415;80;21404;-66
2022/06/07 09:04:32;;;;;;;1.65;1.50;;;;;;;30.33;24.59;100421.27;1785374;79;21419;-68
2022/06/07 09:07:04;;;;;;;3.15;1.52;;;;;;;30.35;24.73;100422.61;1776655;79;21529;-69
2022/06/07 09:12:30;;;;;;;3.87;1.70;;;;;;;30.49;24.04;100417.64;1774672;79;21021;-66
2022/06/07 09:15:10;;;;;;;3.92;1.95;;;;;;;30.46;24.06;100418.88;1774639;80;21025;-71
2022/06/07 09:17:46;;;;;;;3.72;1.85;;;;;;;30.32;24.11;100421.02;1777951;80;21032;-63
2022/06/07 09:20:27;;;;;;;5.42;2.00;;;;;;;29.97;24.52;100414.66;1779686;79;21507;-64
2022/06/07 09:23:00;;;;;;;2.75;1.40;;;;;;;29.72;24.90;100411.13;1772455;80;20978;-66
2022/06/07 09:25:36;;;;;;;3.45;1.70;;;;;;;29.47;25.29;100410.42;1773932;79;22257;-64
2022/06/07 09:28:26;;;;;;;3.50;1.50;;;;;;;29.29;25.44;100405.22;1746293;81;21034;-64
2022/06/07 09:31:10;;;;;;;6.50;1.92;;;;;;;29.12;25.87;100403.66;1748027;79;21420;-66
2022/06/07 09:34:00;;;;;;;1.77;1.52;;;;;;;28.94;26.22;100404.95;1786153;79;21094;-64
2022/06/07 09:36:34;;;;;;;5.40;2.20;;;;;;;28.84;26.08;100404.38;1776188;79;21028;-66
2022/06/07 09:39:20;;;;;;;3.15;1.85;;;;;;;28.62;26.53;100407.40;1776698;79;21043;-64
2022/06/07 09:42:18;;;;;;;6.55;1.67;;;;;;;28.49;26.87;100389.08;1815746;79;21383;-63
2022/06/07 09:45:22;;;;;;;4.15;1.62;;;;;;;28.51;27.05;100392.42;1694004;83;21071;-63
2022/06/07 09:47:53;;;;;;;2.52;1.70;;;;;;;28.61;27.00;100390.22;1700755;84;21060;-64
2022/06/07 09:50:32;;;;;;;3.42;1.92;;;;;;;28.61;27.00;100390.22;1700898;84;21479;-65
2022/06/07 09:53:11;;;;;;;4.53;2.05;;;;;;;28.64;27.17;100390.16;1674591;84;21004;-64
2022/06/07 09:55:45;;;;;;;3.67;1.90;;;;;;;28.58;27.26;100384.36;1680391;85;21106;-65
2022/06/07 09:58:43;;;;;;;3.58;2.02;;;;;;;28.44;27.42;100374.53;1672284;84;21045;-63
2022/06/07 10:01:19;;;;;;;3.83;1.70;;;;;;;28.44;27.42;100374.53;1707396;83;21087;-65
2022/06/07 10:04:34;;;;;;;12.10;2.05;;;;;;;28.52;27.20;100378.00;1720215;83;21063;-64
2022/06/07 10:07:21;;;;;;;5.95;1.98;;;;;;;28.51;27.34;100372.69;1721649;83;21035;-65
2022/06/07 10:10:36;;;;;;;2.92;1.90;;;;;;;28.52;27.35;100372.37;1723429;82;21168;-65
2022/06/07 10:13:29;;;;;;;3.35;2.08;;;;;;;28.58;27.22;100368.84;1752739;82;21056;-65
2022/06/07 10:16:20;;;;;;;8.13;2.10;;;;;;;28.55;26.91;100364.68;1789757;79;21035;-64
2022/06/07 10:19:06;;;;;;;3.72;1.72;;;;;;;28.55;27.53;100366.66;1820004;79;20999;-64
2022/06/07 10:21:47;;;;;;;3.40;2.30;;;;;;;28.60;27.15;100367.38;1781567;80;21060;-64
2022/06/07 10:24:39;;;;;;;9.88;2.37;;;;;;;28.64;27.17;100361.39;1787791;79;21065;-67
2022/06/07 10:27:22;;;;;;;3.90;2.30;;;;;;;28.70;27.21;100357.29;1792599;79;21489;-63
2022/06/07 10:30:04;;;;;;;15.70;2.50;;;;;;;28.76;27.30;100367.03;1750899;82;21488;-71
2022/06/07 10:32:53;;;;;;;3.00;1.92;;;;;;;28.79;26.77;100355.94;1718371;82;21512;-67
2022/06/07 10:35:48;;;;;;;3.47;1.70;;;;;;;28.65;26.87;100360.23;1750878;82;21051;-66
2022/06/07 10:38:41;;;;;;;4.10;1.80;;;;;;;28.47;26.84;100348.52;1750947;82;21027;-66
2022/06/07 10:41:33;;;;;;;2.70;1.92;;;;;;;28.36;27.18;100351.33;1724103;82;21040;-66
2022/06/07 10:44:44;;;;;;;4.45;2.00;;;;;;;28.32;27.36;100346.90;1683686;83;21123;-65
2022/06/07 10:47:33;;;;;;;3.35;1.67;;;;;;;28.31;27.30;100350.03;1785057;80;21185;-64
2022/06/07 10:50:20;;;;;;;3.77;1.90;;;;;;;28.28;27.93;100343.62;1747408;82;21039;-65
2022/06/07 10:52:59;;;;;;;3.80;1.90;;;;;;;28.29;27.63;100337.67;1784783;80;21135;-66
2022/06/07 10:55:35;;;;;;;6.30;1.90;;;;;;;28.29;27.63;100337.67;1784799;80;21070;-65
2022/06/07 10:58:33;;;;;;;2.95;1.77;;;;;;;28.31;26.72;100339.59;1784675;80;21472;-65
2022/06/07 11:01:23;;;;;;;2.33;1.80;;;;;;;28.26;26.79;100342.53;1784992;80;21047;-65
2022/06/07 11:10:30;;;;;;;8.33;2.27;;;;;;;28.32;26.95;100330.56;1784929;80;21452;-66
2022/06/07 11:13:32;;;;;;;5.47;1.85;;;;;;;28.20;27.38;100333.08;1784729;80;21003;-65
2022/06/07 11:16:34;;;;;;;2.33;1.70;;;;;;;28.16;27.50;100327.81;1784775;80;21079;-67
2022/06/07 11:19:04;;;;;;;2.20;1.90;;;;;;;28.13;27.63;100320.83;1780070;79;21452;-65
2022/06/07 11:21:37;;;;;;;5.40;1.92;;;;;;;28.21;27.83;100319.24;1784754;80;21004;-65
2022/06/07 11:24:22;;;;;;;2.02;1.75;;;;;;;28.30;27.18;100304.69;1784727;80;21001;-67
2022/06/07 11:26:58;;;;;;;4.15;2.17;;;;;;;28.31;26.77;100307.77;1766336;80;20988;-65
2022/06/07 11:29:34;;;;;;;5.10;2.02;;;;;;;28.22;26.99;100305.41;1785077;80;21500;-65
2022/06/07 11:32:03;;;;;;;3.57;2.13;;;;;;;28.19;26.82;100304.64;1784996;80;21059;-72
2022/06/07 11:34:34;;;;;;;4.10;1.87;;;;;;;28.17;26.95;100299.90;1785070;80;21471;-66
2022/06/07 11:37:22;;;;;;;3.15;1.95;;;;;;;28.18;27.24;100304.38;1784862;79;21031;-68
2022/06/07 11:39:54;;;;;;;5.00;1.85;;;;;;;28.19;27.21;100298.43;1786274;78;21042;-68
2022/06/07 11:42:30;;;;;;;2.17;1.55;;;;;;;28.14;26.79;100299.95;1719817;83;21051;-70
2022/06/07 11:45:18;;;;;;;3.73;2.00;;;;;;;27.99;27.00;100291.28;1796076;80;21111;-69
2022/06/07 11:47:56;;;;;;;3.72;1.95;;;;;;;27.90;27.17;100283.30;1794892;79;21040;-67
2022/06/07 11:50:41;;;;;;;4.28;1.90;;;;;;;27.94;27.68;100282.92;1715784;83;21498;-66
2022/06/07 11:53:30;;;;;;;7.30;2.00;;;;;;;27.99;27.81;100285.65;1796034;80;21052;-68
2022/06/07 11:56:13;;;;;;;4.53;1.70;;;;;;;27.95;27.30;100278.12;1795951;80;21020;-66
2022/06/07 11:58:56;;;;;;;2.58;2.20;;;;;;;27.84;27.94;100279.50;1795488;80;21059;-66
2022/06/07 12:01:40;;;;;;;1.82;1.50;;;;;;;27.73;26.85;100273.27;1792611;80;20979;-67
2022/06/07 12:04:31;;;;;;;4.87;2.00;;;;;;;27.61;26.46;100264.52;1781994;79;21000;-65
2022/06/07 12:07:10;;;;;;;5.08;1.95;;;;;;;27.50;26.97;100262.47;1782113;80;21020;-65
2022/06/07 12:09:39;;;;;;;7.45;2.47;;;;;;;27.51;27.43;100267.52;1782125;80;21377;-64
2022/06/07 12:12:31;;;;;;;6.03;2.10;;;;;;;27.57;27.87;100269.08;1781928;79;20952;-64
2022/06/07 12:15:18;;;;;;;3.30;2.02;;;;;;;27.60;27.89;100266.47;1728464;82;21102;-64
2022/06/07 12:17:58;;;;;;;4.72;2.10;;;;;;;27.62;28.21;100262.80;1653671;86;21522;-65
2022/06/07 12:20:36;;;;;;;4.10;2.20;;;;;;;27.66;28.09;100261.59;1728375;83;21048;-68
2022/06/07 12:23:24;;;;;;;6.00;2.20;;;;;;;27.66;28.36;100260.19;1653793;87;21052;-68
2022/06/07 12:26:21;;;;;;;8.00;2.65;;;;;;;27.71;28.40;100261.48;1738715;81;21077;-67